createdAt,value
2023-09-27T00:00:48.826Z,65.55
2023-09-27T00:06:10.648Z,64.60
2023-09-27T00:11:32.564Z,59.00
2023-09-27T00:16:54.613Z,63.35
2023-09-27T00:22:16.541Z,63.03
2023-09-27T00:27:38.393Z,70.53
2023-09-27T00:33:00.567Z,65.13
2023-09-27T00:38:22.622Z,70.00
2023-09-27T00:43:44.531Z,63.03
2023-09-27T00:49:06.415Z,65.35
2023-09-27T00:54:28.311Z,69.05
2023-09-27T00:59:50.149Z,68.30
2023-09-27T01:05:12.128Z,67.82
2023-09-27T01:10:34.081Z,67.38
2023-09-27T01:15:55.968Z,70.88
2023-09-27T01:21:17.817Z,83.40
2023-09-27T01:26:39.673Z,67.88
2023-09-27T01:32:01.556Z,63.25
2023-09-27T01:37:23.871Z,71.53
2023-09-27T01:42:45.695Z,78.32
2023-09-27T01:48:07.721Z,68.55
2023-09-27T01:53:29.632Z,66.13
2023-09-27T01:58:51.735Z,69.68
2023-09-27T02:04:13.838Z,57.75
2023-09-27T02:09:35.692Z,65.13
2023-09-27T02:14:57.517Z,55.45
2023-09-27T02:20:19.631Z,63.17
2023-09-27T02:25:41.523Z,77.00
2023-09-27T02:31:03.415Z,64.88
2023-09-27T02:36:25.329Z,77.13
2023-09-27T02:41:47.150Z,70.40
2023-09-27T02:47:09.026Z,76.82
2023-09-27T02:52:30.895Z,69.13
2023-09-27T02:57:55.147Z,92.13
2023-09-27T03:03:18.368Z,99.72
2023-09-27T03:08:40.403Z,92.22
2023-09-27T03:14:03.315Z,83.15
2023-09-27T03:19:25.269Z,73.53
2023-09-27T03:24:47.125Z,78.95
2023-09-27T03:30:09.020Z,94.65
2023-09-27T03:35:30.970Z,98.75
2023-09-27T03:40:52.865Z,93.53
2023-09-27T03:46:14.682Z,86.07
2023-09-27T03:51:36.532Z,88.68
2023-09-27T03:56:58.360Z,89.47
2023-09-27T04:02:20.230Z,107.68
2023-09-27T04:07:42.067Z,108.45
2023-09-27T04:13:03.901Z,89.00
2023-09-27T04:18:25.740Z,95.25
2023-09-27T04:23:47.727Z,89.93
2023-09-27T04:29:09.589Z,92.60
2023-09-27T04:34:31.440Z,102.68
2023-09-27T04:39:53.329Z,90.65
2023-09-27T04:45:15.190Z,86.22
2023-09-27T04:50:37.674Z,82.63
2023-09-27T04:55:59.612Z,83.07
2023-09-27T05:01:21.540Z,78.43
2023-09-27T05:06:43.397Z,87.20
2023-09-27T05:12:05.244Z,74.85
2023-09-27T05:17:27.259Z,73.93
2023-09-27T05:22:49.178Z,72.32
2023-09-27T05:28:11.033Z,60.88
2023-09-27T05:33:32.909Z,64.40
2023-09-27T05:38:54.877Z,55.25
2023-09-27T05:44:16.921Z,48.22
2023-09-27T05:49:38.790Z,54.30
2023-09-27T05:55:00.632Z,55.38
2023-09-27T06:00:22.564Z,56.55
2023-09-27T06:05:45.228Z,42.38
2023-09-27T06:11:07.213Z,35.40
2023-09-27T06:16:29.167Z,33.65
2023-09-27T06:21:51.012Z,28.92
2023-09-27T06:27:12.930Z,25.92
2023-09-27T06:32:34.913Z,28.52
2023-09-27T06:37:57.368Z,24.55
2023-09-27T06:43:19.188Z,23.08
2023-09-27T06:48:41.131Z,20.63
2023-09-27T06:54:03.176Z,18.35
2023-09-27T06:59:25.119Z,21.60
2023-09-27T07:04:47.007Z,21.08
2023-09-27T07:10:08.863Z,21.20
2023-09-27T07:15:30.690Z,22.33
2023-09-27T07:20:52.541Z,18.75
2023-09-27T07:26:14.547Z,20.42
2023-09-27T07:31:36.402Z,19.92
2023-09-27T07:36:58.226Z,19.45
2023-09-27T07:42:20.063Z,15.02
2023-09-27T07:47:42.067Z,22.20
2023-09-27T07:53:04.055Z,14.68
2023-09-27T07:58:25.893Z,14.02
2023-09-27T08:03:47.809Z,15.85
2023-09-27T08:09:17.534Z,14.60
2023-09-27T08:14:45.979Z,19.77
2023-09-27T08:20:07.805Z,13.40
2023-09-27T08:25:29.689Z,10.13
2023-09-27T08:30:51.562Z,10.95
2023-09-27T08:36:13.443Z,10.25
2023-09-27T08:41:35.334Z,11.95
2023-09-27T08:46:57.202Z,11.30
2023-09-27T08:52:19.051Z,11.68
2023-09-27T08:57:40.900Z,13.23
2023-09-27T09:03:03.357Z,12.55
2023-09-27T09:08:41.036Z,12.23
2023-09-27T09:14:05.896Z,11.63
2023-09-27T09:19:43.457Z,10.30
2023-09-27T09:25:05.887Z,13.38
2023-09-27T09:30:27.730Z,9.57
2023-09-27T09:35:49.671Z,9.70
2023-09-27T09:41:11.613Z,12.30
2023-09-27T09:46:33.581Z,8.38
2023-09-27T09:51:55.436Z,9.23
2023-09-27T09:57:28.003Z,8.00
2023-09-27T10:02:57.329Z,9.27
2023-09-27T10:08:19.300Z,11.43
2023-09-27T10:13:41.155Z,9.80
2023-09-27T10:19:03.010Z,11.27
2023-09-27T10:24:24.924Z,8.20
2023-09-27T10:29:47.013Z,7.63
2023-09-27T10:35:08.954Z,7.70
2023-09-27T10:40:30.814Z,12.07
2023-09-27T10:45:52.723Z,15.02
2023-09-27T10:51:14.597Z,11.55
2023-09-27T10:56:36.457Z,8.07
2023-09-27T11:01:58.392Z,8.32
2023-09-27T11:07:20.300Z,19.65
2023-09-27T11:12:42.205Z,7.75
2023-09-27T11:18:04.162Z,8.57
2023-09-27T11:23:26.148Z,11.35
2023-09-27T11:28:47.994Z,9.15
2023-09-27T11:34:10.033Z,11.40
2023-09-27T11:39:31.875Z,5.65
2023-09-27T11:44:53.793Z,7.18
2023-09-27T11:50:15.736Z,9.98
2023-09-27T11:55:37.608Z,7.97
2023-09-27T12:00:59.646Z,9.20
2023-09-27T12:06:21.861Z,5.90
2023-09-27T12:11:44.027Z,9.75
2023-09-27T12:17:05.907Z,8.10
2023-09-27T12:22:27.893Z,10.80
2023-09-27T12:27:49.846Z,9.80
2023-09-27T12:33:12.092Z,12.80
2023-09-27T12:38:34.105Z,7.43
2023-09-27T12:43:56.096Z,9.68
2023-09-27T12:49:18.021Z,8.88
2023-09-27T12:54:39.908Z,8.00
2023-09-27T13:00:03.788Z,8.98
2023-09-27T13:05:26.629Z,7.10
2023-09-27T13:10:48.753Z,6.82
2023-09-27T13:16:11.129Z,6.35
2023-09-27T13:21:33.057Z,7.78
2023-09-27T13:26:55.026Z,8.98
2023-09-27T13:32:17.110Z,8.05
2023-09-27T13:37:39.006Z,8.07
2023-09-27T13:43:01.061Z,10.07
2023-09-27T13:48:22.964Z,11.15
2023-09-27T13:53:44.965Z,7.97
2023-09-27T13:59:06.972Z,7.55
2023-09-27T14:04:28.989Z,13.60
2023-09-27T14:09:50.981Z,9.60
2023-09-27T14:15:13.900Z,6.40
2023-09-27T14:20:37.615Z,7.47
2023-09-27T14:25:59.517Z,10.27
2023-09-27T14:31:21.378Z,9.13
2023-09-27T14:36:43.288Z,10.25
2023-09-27T14:42:05.149Z,10.68
2023-09-27T14:47:27.200Z,8.63
2023-09-27T14:52:49.194Z,9.85
2023-09-27T14:58:11.090Z,8.88
2023-09-27T15:03:33.123Z,11.05
2023-09-27T15:08:55.035Z,8.38
2023-09-27T15:14:16.857Z,10.57
2023-09-27T15:19:38.735Z,8.43
2023-09-27T15:25:00.626Z,11.02
2023-09-27T15:30:22.550Z,10.00
2023-09-27T15:35:44.368Z,9.15
2023-09-27T15:41:06.188Z,9.30
2023-09-27T15:46:28.090Z,9.55
2023-09-27T15:51:49.954Z,12.48
2023-09-27T15:57:11.785Z,11.80
2023-09-27T16:02:33.676Z,15.73
2023-09-27T16:07:55.681Z,12.60
2023-09-27T16:13:17.620Z,16.65
2023-09-27T16:24:18.823Z,11.98
2023-09-27T16:29:40.849Z,13.48
2023-09-27T16:35:03.097Z,10.52
2023-09-27T16:40:24.990Z,11.40
2023-09-27T16:45:46.891Z,13.85
2023-09-27T16:51:08.782Z,20.30
2023-09-27T16:56:30.629Z,21.17
2023-09-27T17:01:52.602Z,16.50
2023-09-27T17:07:14.648Z,12.13
2023-09-27T17:12:36.527Z,12.85
2023-09-27T17:17:58.472Z,13.65
2023-09-27T17:23:20.357Z,12.15
2023-09-27T17:28:42.250Z,15.50
2023-09-27T17:34:04.236Z,13.60
2023-09-27T17:39:26.185Z,10.32
2023-09-27T17:44:49.036Z,13.15
2023-09-27T17:50:11.051Z,12.23
2023-09-27T17:55:32.952Z,14.45
2023-09-27T18:00:54.862Z,17.55
2023-09-27T18:06:16.763Z,12.50
2023-09-27T18:11:38.626Z,18.95
2023-09-27T18:17:00.640Z,11.32
2023-09-27T18:22:22.519Z,14.52
2023-09-27T18:27:44.356Z,17.42
2023-09-27T18:33:06.250Z,12.73
2023-09-27T18:38:28.109Z,13.18
2023-09-27T18:43:50.028Z,15.98
2023-09-27T18:49:11.906Z,15.57
2023-09-27T18:54:33.776Z,13.13
2023-09-27T18:59:55.618Z,16.73
2023-09-27T19:05:17.481Z,15.82
2023-09-27T19:10:39.477Z,15.63
2023-09-27T19:16:01.504Z,16.73
2023-09-27T19:21:23.383Z,13.50
2023-09-27T19:26:45.230Z,16.77
2023-09-27T19:32:07.101Z,12.82
2023-09-27T19:37:29.008Z,11.57
2023-09-27T19:42:50.898Z,13.75
2023-09-27T19:48:12.778Z,12.65
2023-09-27T19:53:34.648Z,14.60
2023-09-27T19:58:56.593Z,13.07
2023-09-27T20:04:18.498Z,10.55
2023-09-27T20:09:40.337Z,22.27
2023-09-27T20:15:02.175Z,15.48
2023-09-27T20:20:23.998Z,11.25
2023-09-27T20:25:45.869Z,12.90
2023-09-27T20:31:07.765Z,11.35
2023-09-27T20:36:29.647Z,12.88
2023-09-27T20:41:51.644Z,11.30
2023-09-27T20:47:13.514Z,15.60
2023-09-27T20:52:35.441Z,14.40
2023-09-27T20:57:57.379Z,16.20
2023-09-27T21:03:19.370Z,18.10
2023-09-27T21:08:41.289Z,12.60
2023-09-27T21:14:03.157Z,14.20
2023-09-27T21:19:25.137Z,14.48
2023-09-27T21:24:46.985Z,12.82
2023-09-27T21:30:08.824Z,14.82
2023-09-27T21:35:30.681Z,13.25
2023-09-27T21:40:52.639Z,16.30
2023-09-27T21:46:14.604Z,20.58
2023-09-27T21:51:36.445Z,15.70
2023-09-27T21:56:58.323Z,13.60
2023-09-27T22:02:20.163Z,14.80
2023-09-27T22:07:42.053Z,21.13
2023-09-27T22:13:03.924Z,17.20
2023-09-27T22:18:25.786Z,17.33
2023-09-27T22:23:47.649Z,16.42
2023-09-27T22:29:09.572Z,21.23
2023-09-27T22:34:31.462Z,21.38
2023-09-27T22:40:04.581Z,25.85
2023-09-27T22:45:34.744Z,17.73
2023-09-27T22:50:56.610Z,21.42
2023-09-27T22:56:18.475Z,25.40
2023-09-27T23:01:40.368Z,20.45
2023-09-27T23:07:02.373Z,23.60
2023-09-27T23:12:24.518Z,22.45
2023-09-27T23:17:46.370Z,23.75
2023-09-27T23:23:08.843Z,22.35
2023-09-27T23:28:30.887Z,20.02
2023-09-27T23:33:53.054Z,21.77
2023-09-27T23:39:15.086Z,23.35
2023-09-27T23:44:36.918Z,23.88
2023-09-27T23:49:58.791Z,29.08
2023-09-27T23:55:20.660Z,23.15
